createdAt,value
2018-02-15T00:01:35.813Z,19.70
2018-02-15T00:04:01.578Z,18.43
2018-02-15T00:06:27.344Z,18.00
2018-02-15T00:08:53.097Z,19.40
2018-02-15T00:11:19.101Z,19.87
2018-02-15T00:13:45.365Z,19.25
2018-02-15T00:16:11.152Z,19.98
2018-02-15T00:18:37.333Z,17.47
2018-02-15T00:21:03.127Z,17.48
2018-02-15T00:23:29.546Z,19.10
2018-02-15T00:25:55.400Z,18.83
2018-02-15T00:28:21.657Z,18.57
2018-02-15T00:30:47.440Z,18.52
2018-02-15T00:33:13.187Z,20.27
2018-02-15T00:35:39.630Z,20.07
2018-02-15T00:38:05.391Z,17.80
2018-02-15T00:40:31.151Z,18.07
2018-02-15T00:42:57.110Z,17.43
2018-02-15T00:45:22.932Z,18.17
2018-02-15T00:47:48.720Z,19.27
2018-02-15T00:50:14.476Z,18.20
2018-02-15T00:52:40.231Z,18.40
2018-02-15T00:55:05.981Z,18.83
2018-02-15T00:57:31.751Z,20.73
2018-02-15T00:59:57.506Z,17.27
2018-02-15T01:02:23.267Z,20.90
2018-02-15T01:04:49.035Z,18.70
2018-02-15T01:07:14.795Z,23.63
2018-02-15T01:09:40.555Z,20.03
2018-02-15T01:12:06.311Z,18.37
2018-02-15T01:14:32.067Z,17.77
2018-02-15T01:16:57.827Z,16.93
2018-02-15T01:19:23.577Z,18.67
2018-02-15T01:21:49.343Z,19.50
2018-02-15T01:24:15.115Z,18.57
2018-02-15T01:26:40.886Z,19.77
2018-02-15T01:29:06.650Z,21.67
2018-02-15T01:31:32.419Z,19.33
2018-02-15T01:33:58.189Z,18.90
2018-02-15T01:36:23.956Z,16.43
2018-02-15T01:38:49.707Z,22.20
2018-02-15T01:41:15.461Z,19.70
2018-02-15T01:43:41.208Z,20.10
2018-02-15T01:46:06.988Z,20.43
2018-02-15T01:48:32.733Z,19.73
2018-02-15T01:50:58.489Z,19.30
2018-02-15T01:53:24.246Z,21.90
2018-02-15T01:55:50.008Z,20.70
2018-02-15T01:58:15.779Z,18.60
2018-02-15T02:00:41.552Z,21.47
2018-02-15T02:03:07.320Z,20.60
2018-02-15T02:05:33.091Z,18.50
2018-02-15T02:07:58.848Z,19.70
2018-02-15T02:10:24.615Z,20.07
2018-02-15T02:12:50.386Z,24.33
2018-02-15T02:15:16.147Z,22.47
2018-02-15T02:17:41.936Z,22.07
2018-02-15T02:20:07.689Z,18.37
2018-02-15T02:22:33.458Z,22.90
2018-02-15T02:24:59.222Z,20.53
2018-02-15T02:27:24.976Z,21.40
2018-02-15T02:29:50.747Z,19.20
2018-02-15T02:32:16.505Z,23.17
2018-02-15T02:34:42.270Z,20.23
2018-02-15T02:37:08.032Z,19.70
2018-02-15T02:39:33.813Z,18.90
2018-02-15T02:41:59.584Z,22.53
2018-02-15T02:44:25.347Z,25.13
2018-02-15T02:46:51.100Z,20.33
2018-02-15T02:49:16.867Z,19.37
2018-02-15T02:51:42.622Z,22.87
2018-02-15T02:54:08.372Z,21.77
2018-02-15T02:56:34.130Z,21.23
2018-02-15T02:58:59.909Z,22.00
2018-02-15T03:01:25.670Z,21.77
2018-02-15T03:03:51.419Z,20.67
2018-02-15T03:06:17.173Z,19.70
2018-02-15T03:08:42.926Z,20.20
2018-02-15T03:11:08.692Z,21.53
2018-02-15T03:13:34.447Z,21.53
2018-02-15T03:16:00.218Z,24.13
2018-02-15T03:18:25.962Z,19.57
2018-02-15T03:20:51.739Z,20.20
2018-02-15T03:23:17.493Z,17.80
2018-02-15T03:25:43.255Z,21.93
2018-02-15T03:28:09.007Z,19.03
2018-02-15T03:30:34.771Z,20.70
2018-02-15T03:33:00.511Z,18.97
2018-02-15T03:35:26.274Z,22.40
2018-02-15T03:37:52.023Z,19.43
2018-02-15T03:40:17.799Z,23.10
2018-02-15T03:42:43.551Z,23.07
2018-02-15T03:45:09.378Z,21.07
2018-02-15T03:47:35.126Z,20.87
2018-02-15T03:50:00.887Z,19.30
2018-02-15T03:52:26.642Z,20.30
2018-02-15T03:54:52.423Z,18.87
2018-02-15T03:57:18.173Z,20.27
2018-02-15T03:59:43.919Z,21.80
2018-02-15T04:02:09.683Z,20.03
2018-02-15T04:04:35.431Z,21.93
2018-02-15T04:07:01.195Z,22.47
2018-02-15T04:09:26.948Z,25.40
2018-02-15T04:11:52.710Z,21.63
2018-02-15T04:14:18.450Z,21.13
2018-02-15T04:16:44.211Z,21.30
2018-02-15T04:19:09.958Z,25.93
2018-02-15T04:21:35.722Z,23.77
2018-02-15T04:24:01.467Z,22.37
2018-02-15T04:26:27.234Z,20.53
2018-02-15T04:28:52.986Z,25.73
2018-02-15T04:31:18.744Z,24.30
2018-02-15T04:33:44.547Z,20.67
2018-02-15T04:36:10.312Z,24.83
2018-02-15T04:38:36.077Z,21.63
2018-02-15T04:41:01.872Z,24.47
2018-02-15T04:43:27.639Z,22.17
2018-02-15T04:45:53.395Z,24.47
2018-02-15T04:48:19.166Z,24.00
2018-02-15T04:50:44.915Z,22.87
2018-02-15T04:53:10.687Z,26.07
2018-02-15T04:55:36.453Z,25.67
2018-02-15T04:58:02.214Z,23.70
2018-02-15T05:00:27.975Z,23.37
2018-02-15T05:02:53.753Z,24.27
2018-02-15T05:05:19.507Z,26.57
2018-02-15T05:07:45.272Z,20.73
2018-02-15T05:10:11.030Z,23.13
2018-02-15T05:12:36.796Z,21.43
2018-02-15T05:15:02.567Z,24.53
2018-02-15T05:17:28.335Z,26.30
2018-02-15T05:19:54.078Z,25.40
2018-02-15T05:22:19.846Z,24.43
2018-02-15T05:24:45.610Z,25.17
2018-02-15T05:27:11.366Z,25.80
2018-02-15T05:29:37.130Z,26.77
2018-02-15T05:32:02.907Z,24.60
2018-02-15T05:34:28.654Z,25.90
2018-02-15T05:36:54.410Z,29.20
2018-02-15T05:39:20.175Z,23.30
2018-02-15T05:41:45.931Z,22.93
2018-02-15T05:44:11.699Z,26.10
2018-02-15T05:46:37.452Z,24.93
2018-02-15T05:49:03.223Z,25.33
2018-02-15T05:51:28.971Z,25.10
2018-02-15T05:53:54.739Z,23.90
2018-02-15T05:56:20.533Z,25.90
2018-02-15T05:58:46.279Z,23.70
2018-02-15T06:01:12.040Z,23.90
2018-02-15T06:03:37.807Z,23.50
2018-02-15T06:06:03.561Z,24.63
2018-02-15T06:08:29.327Z,26.40
2018-02-15T06:10:55.084Z,30.87
2018-02-15T06:13:20.850Z,25.77
2018-02-15T06:15:46.607Z,26.07
2018-02-15T06:18:12.364Z,29.63
2018-02-15T06:20:38.123Z,26.60
2018-02-15T06:23:03.878Z,26.60
2018-02-15T06:25:29.637Z,25.53
2018-02-15T06:27:55.388Z,28.90
2018-02-15T06:30:21.154Z,26.93
2018-02-15T06:32:46.915Z,26.10
2018-02-15T06:35:12.666Z,27.97
2018-02-15T06:37:38.417Z,30.53
2018-02-15T06:40:04.184Z,30.93
2018-02-15T06:42:29.942Z,28.23
2018-02-15T06:44:55.714Z,30.43
2018-02-15T06:47:21.467Z,30.03
2018-02-15T06:49:47.230Z,29.00
2018-02-15T06:52:12.970Z,29.03
2018-02-15T06:54:38.750Z,29.63
2018-02-15T06:57:04.494Z,29.50
2018-02-15T06:59:30.258Z,28.03
2018-02-15T07:01:56.011Z,28.83
2018-02-15T07:04:21.779Z,31.23
2018-02-15T07:06:47.522Z,30.50
2018-02-15T07:09:13.281Z,31.80
2018-02-15T07:11:39.038Z,30.93
2018-02-15T07:14:04.795Z,36.00
2018-02-15T07:16:30.564Z,32.77
2018-02-15T07:18:56.326Z,33.70
2018-02-15T07:21:22.098Z,40.00
2018-02-15T07:23:47.852Z,33.37
2018-02-15T07:26:13.622Z,36.43
2018-02-15T07:28:39.382Z,32.03
2018-02-15T07:31:05.146Z,34.83
2018-02-15T07:33:30.907Z,35.60
2018-02-15T07:35:56.679Z,33.70
2018-02-15T07:38:22.431Z,34.60
2018-02-15T07:40:48.213Z,35.70
2018-02-15T07:43:13.956Z,36.40
2018-02-15T07:45:39.722Z,30.83
2018-02-15T07:48:05.483Z,35.57
2018-02-15T07:50:31.268Z,34.40
2018-02-15T07:52:57.030Z,36.00
2018-02-15T07:55:22.819Z,34.63
2018-02-15T07:57:48.585Z,37.30
2018-02-15T08:00:14.331Z,34.37
2018-02-15T08:02:40.094Z,35.47
2018-02-15T08:05:05.849Z,34.47
2018-02-15T08:07:31.630Z,38.40
2018-02-15T08:09:57.374Z,38.03
2018-02-15T08:12:23.147Z,34.13
2018-02-15T08:14:48.901Z,38.37
2018-02-15T08:17:14.682Z,34.10
2018-02-15T08:19:40.466Z,34.43
2018-02-15T08:22:06.263Z,37.57
2018-02-15T08:24:32.034Z,34.40
2018-02-15T08:26:57.807Z,35.63
2018-02-15T08:29:23.566Z,35.53
2018-02-15T08:31:49.346Z,36.50
2018-02-15T08:34:15.135Z,37.27
2018-02-15T08:36:40.881Z,35.90
2018-02-15T08:39:06.646Z,38.77
2018-02-15T08:41:32.408Z,38.90
2018-02-15T08:43:58.174Z,35.07
2018-02-15T08:46:23.917Z,36.47
2018-02-15T08:48:49.679Z,34.03
2018-02-15T08:51:15.430Z,33.23
2018-02-15T08:53:41.187Z,33.43
2018-02-15T08:56:06.938Z,35.73
2018-02-15T08:58:32.706Z,33.10
2018-02-15T09:00:58.453Z,34.37
2018-02-15T09:03:24.223Z,34.37
2018-02-15T09:05:49.974Z,37.07
2018-02-15T09:08:15.742Z,35.07
2018-02-15T09:10:41.485Z,33.17
2018-02-15T09:13:07.254Z,35.77
2018-02-15T09:15:32.998Z,34.67
2018-02-15T09:17:58.764Z,33.23
2018-02-15T09:20:24.521Z,33.47
2018-02-15T09:22:50.281Z,32.00
2018-02-15T09:25:16.038Z,33.47
2018-02-15T09:27:41.787Z,33.67
2018-02-15T09:30:07.565Z,31.27
2018-02-15T09:32:33.318Z,32.83
2018-02-15T09:34:59.093Z,33.13
2018-02-15T09:37:24.849Z,34.27
2018-02-15T09:39:50.623Z,30.93
2018-02-15T09:42:16.382Z,33.20
2018-02-15T09:44:42.143Z,33.03
2018-02-15T09:47:07.898Z,33.00
2018-02-15T09:49:33.649Z,36.10
2018-02-15T09:51:59.403Z,36.43
2018-02-15T09:54:25.214Z,34.57
2018-02-15T09:56:50.947Z,34.27
2018-02-15T09:59:16.719Z,32.37
2018-02-15T10:01:42.458Z,30.83
2018-02-15T10:04:08.234Z,31.27
2018-02-15T10:06:33.994Z,32.67
2018-02-15T10:08:59.750Z,30.40
2018-02-15T10:11:25.507Z,32.33
2018-02-15T10:13:51.293Z,32.53
2018-02-15T10:16:17.051Z,32.90
2018-02-15T10:18:42.808Z,32.77
2018-02-15T10:21:08.582Z,30.57
2018-02-15T10:23:34.334Z,33.43
2018-02-15T10:26:00.098Z,31.07
2018-02-15T10:28:25.862Z,32.00
2018-02-15T10:30:51.623Z,32.87
2018-02-15T10:33:17.366Z,32.00
2018-02-15T10:35:43.125Z,36.70
2018-02-15T10:38:08.886Z,32.40
2018-02-15T10:40:34.657Z,32.50
2018-02-15T10:43:00.402Z,31.47
2018-02-15T10:45:26.166Z,30.93
2018-02-15T10:47:51.923Z,31.97
2018-02-15T10:50:17.688Z,30.53
2018-02-15T10:52:43.447Z,34.87
2018-02-15T10:55:09.220Z,37.10
2018-02-15T10:57:34.999Z,30.80
2018-02-15T11:00:00.755Z,30.70
2018-02-15T11:02:26.534Z,33.23
2018-02-15T11:04:58.563Z,32.63
2018-02-15T11:07:24.362Z,31.73
2018-02-15T11:09:50.083Z,32.40
2018-02-15T11:12:15.855Z,32.50
2018-02-15T11:14:41.610Z,34.33
2018-02-15T11:17:07.396Z,34.43
2018-02-15T11:19:33.151Z,35.63
2018-02-15T11:21:58.922Z,35.03
2018-02-15T11:24:24.684Z,38.13
2018-02-15T11:26:50.447Z,34.20
2018-02-15T11:29:16.217Z,35.23
2018-02-15T11:31:42.090Z,39.80
2018-02-15T11:34:07.750Z,32.43
2018-02-15T11:36:33.557Z,34.90
2018-02-15T11:38:59.342Z,38.33
2018-02-15T11:41:25.097Z,36.10
2018-02-15T11:43:50.867Z,37.43
2018-02-15T11:46:16.639Z,39.23
2018-02-15T11:48:42.404Z,37.07
2018-02-15T11:51:08.359Z,37.30
2018-02-15T11:53:34.182Z,40.80
2018-02-15T11:56:02.100Z,38.30
2018-02-15T11:58:27.866Z,39.50
2018-02-15T12:00:53.627Z,37.63
2018-02-15T12:03:19.399Z,34.87
2018-02-15T12:05:45.159Z,36.33
2018-02-15T12:08:10.928Z,37.60
2018-02-15T12:10:36.714Z,38.17
2018-02-15T12:13:02.499Z,38.30
2018-02-15T12:15:28.266Z,40.87
2018-02-15T12:17:54.029Z,36.37
2018-02-15T12:20:19.774Z,35.37
2018-02-15T12:22:45.555Z,34.33
2018-02-15T12:25:11.308Z,35.80
2018-02-15T12:27:37.079Z,36.57
2018-02-15T12:30:02.836Z,37.70
2018-02-15T12:32:28.618Z,46.67
2018-02-15T12:34:54.371Z,39.00
2018-02-15T12:37:20.126Z,35.87
2018-02-15T12:39:45.894Z,37.80
2018-02-15T12:42:11.643Z,43.53
2018-02-15T12:44:37.410Z,38.60
2018-02-15T12:47:03.171Z,35.43
2018-02-15T12:49:28.946Z,36.60
2018-02-15T12:51:54.738Z,36.27
2018-02-15T12:54:20.462Z,36.47
2018-02-15T12:56:46.233Z,41.67
2018-02-15T12:59:12.011Z,35.97
2018-02-15T13:01:37.783Z,35.77
2018-02-15T13:04:03.554Z,36.43
2018-02-15T13:06:29.306Z,32.70
2018-02-15T13:08:55.070Z,37.97
2018-02-15T13:11:20.830Z,36.70
2018-02-15T13:13:46.707Z,32.60
2018-02-15T13:16:24.962Z,33.37
2018-02-15T13:19:03.242Z,34.55
2018-02-15T13:21:29.021Z,33.92
2018-02-15T13:23:54.782Z,34.43
2018-02-15T13:26:20.539Z,37.97
2018-02-15T13:28:46.311Z,37.87
2018-02-15T13:31:12.068Z,36.03
2018-02-15T13:33:38.327Z,40.40
2018-02-15T13:36:04.114Z,35.30
2018-02-15T13:38:29.890Z,31.33
2018-02-15T13:40:55.662Z,37.50
2018-02-15T13:43:21.428Z,36.83
2018-02-15T13:45:47.203Z,32.37
2018-02-15T13:48:12.955Z,33.67
2018-02-15T13:50:38.725Z,34.40
2018-02-15T13:53:04.488Z,35.47
2018-02-15T13:55:30.262Z,34.13
2018-02-15T13:57:56.024Z,32.37
2018-02-15T14:00:21.799Z,35.63
2018-02-15T14:02:47.553Z,33.17
2018-02-15T14:05:13.321Z,35.30
2018-02-15T14:07:39.079Z,32.97
2018-02-15T14:10:04.848Z,34.93
2018-02-15T14:12:30.604Z,32.03
2018-02-15T14:14:56.383Z,32.43
2018-02-15T14:17:22.162Z,33.43
2018-02-15T14:19:47.937Z,34.40
2018-02-15T14:24:46.110Z,36.60
2018-02-15T14:27:11.866Z,34.20
2018-02-15T14:29:37.635Z,36.70
2018-02-15T14:32:03.404Z,38.37
2018-02-15T14:34:29.167Z,36.80
2018-02-15T14:36:54.950Z,38.60
2018-02-15T14:39:20.694Z,37.03
2018-02-15T14:41:46.459Z,37.70
2018-02-15T14:44:12.206Z,37.77
2018-02-15T14:46:37.979Z,37.40
2018-02-15T14:49:03.736Z,39.93
2018-02-15T14:51:29.503Z,37.93
2018-02-15T14:53:55.255Z,37.53
2018-02-15T14:56:21.019Z,39.43
2018-02-15T14:58:46.771Z,36.37
2018-02-15T15:01:12.544Z,37.30
2018-02-15T15:03:38.290Z,39.60
2018-02-15T15:06:04.060Z,40.83
2018-02-15T15:08:29.807Z,42.13
2018-02-15T15:10:55.588Z,36.10
2018-02-15T15:13:21.337Z,36.80
2018-02-15T15:15:47.069Z,36.57
2018-02-15T15:18:12.818Z,34.90
2018-02-15T15:20:38.586Z,36.83
2018-02-15T15:23:05.146Z,33.92
2018-02-15T15:25:30.896Z,35.43
2018-02-15T15:27:56.655Z,37.07
2018-02-15T15:30:22.410Z,34.03
2018-02-15T15:32:48.178Z,35.67
2018-02-15T15:35:13.927Z,32.27
2018-02-15T15:37:39.690Z,34.07
2018-02-15T15:40:05.450Z,39.17
2018-02-15T15:42:31.214Z,38.00
2018-02-15T15:44:56.975Z,33.13
2018-02-15T15:47:22.754Z,35.57
2018-02-15T15:49:48.515Z,35.03
2018-02-15T15:52:14.287Z,35.93
2018-02-15T15:54:40.058Z,35.93
2018-02-15T15:57:05.818Z,39.00
2018-02-15T15:59:31.579Z,33.87
2018-02-15T16:01:57.371Z,36.47
2018-02-15T16:04:23.110Z,34.87
2018-02-15T16:06:48.858Z,33.87
2018-02-15T16:09:14.656Z,36.10
2018-02-15T16:11:40.423Z,35.43
2018-02-15T16:14:06.191Z,35.30
2018-02-15T16:16:31.940Z,34.73
2018-02-15T16:18:57.702Z,38.13
2018-02-15T16:21:23.462Z,36.73
2018-02-15T16:23:49.232Z,35.90
2018-02-15T16:26:14.981Z,37.43
2018-02-15T16:28:40.754Z,40.10
2018-02-15T16:31:06.498Z,39.40
2018-02-15T16:33:32.252Z,42.03
2018-02-15T16:35:58.037Z,40.07
2018-02-15T16:38:23.840Z,37.57
2018-02-15T16:40:49.595Z,39.33
2018-02-15T16:43:15.366Z,39.03
2018-02-15T16:45:41.105Z,40.40
2018-02-15T16:48:06.858Z,37.20
2018-02-15T16:50:32.614Z,38.77
2018-02-15T16:52:58.383Z,37.33
2018-02-15T16:55:24.153Z,38.97
2018-02-15T16:57:49.909Z,38.17
2018-02-15T17:00:15.675Z,37.03
2018-02-15T17:02:41.449Z,37.03
2018-02-15T17:05:07.217Z,36.83
2018-02-15T17:07:32.971Z,35.87
2018-02-15T17:09:58.737Z,39.20
2018-02-15T17:12:24.487Z,40.07
2018-02-15T17:14:50.262Z,41.67
2018-02-15T17:17:16.013Z,38.60
2018-02-15T17:19:41.769Z,41.20
2018-02-15T17:22:07.525Z,38.93
2018-02-15T17:24:33.293Z,39.03
2018-02-15T17:26:59.046Z,42.87
2018-02-15T17:29:24.810Z,42.50
2018-02-15T17:31:50.569Z,47.83
2018-02-15T17:34:16.327Z,44.10
2018-02-15T17:36:42.086Z,47.97
2018-02-15T17:39:07.859Z,49.07
2018-02-15T17:41:33.604Z,48.93
2018-02-15T17:43:59.390Z,48.50
2018-02-15T17:46:25.151Z,45.27
2018-02-15T17:48:50.923Z,48.43
2018-02-15T17:51:16.698Z,50.40
2018-02-15T17:53:42.463Z,55.50
2018-02-15T17:56:08.239Z,54.10
2018-02-15T17:58:33.993Z,51.70
2018-02-15T18:00:59.780Z,54.70
2018-02-15T18:03:25.535Z,57.13
2018-02-15T18:05:51.300Z,59.77
2018-02-15T18:08:17.058Z,68.37
2018-02-15T18:10:42.824Z,59.57
2018-02-15T18:13:08.594Z,58.80
2018-02-15T18:15:34.351Z,59.70
2018-02-15T18:18:00.096Z,63.00
2018-02-15T18:20:25.862Z,62.47
2018-02-15T18:22:51.619Z,60.33
2018-02-15T18:25:17.386Z,57.27
2018-02-15T18:27:43.147Z,68.27
2018-02-15T18:30:08.926Z,54.67
2018-02-15T18:32:34.677Z,54.27
2018-02-15T18:35:00.434Z,57.27
2018-02-15T18:37:26.224Z,59.20
2018-02-15T18:39:51.987Z,50.30
2018-02-15T18:42:17.754Z,57.07
2018-02-15T18:44:43.527Z,51.37
2018-02-15T18:47:09.309Z,54.27
2018-02-15T18:49:35.063Z,53.37
2018-02-15T18:52:00.846Z,52.63
2018-02-15T18:54:26.614Z,53.43
2018-02-15T18:56:52.383Z,50.10
2018-02-15T18:59:18.139Z,57.37
2018-02-15T19:01:43.923Z,54.27
2018-02-15T19:04:09.682Z,47.67
2018-02-15T19:06:35.450Z,54.17
2018-02-15T19:09:01.207Z,58.67
2018-02-15T19:11:26.998Z,63.67
2018-02-15T19:13:52.767Z,67.13
2018-02-15T19:16:18.540Z,60.47
2018-02-15T19:18:44.296Z,60.27
2018-02-15T19:21:10.071Z,66.03
2018-02-15T19:23:35.837Z,65.10
2018-02-15T19:26:01.607Z,57.63
2018-02-15T19:28:27.388Z,63.63
2018-02-15T19:30:53.166Z,60.57
2018-02-15T19:33:18.953Z,60.10
2018-02-15T19:35:44.750Z,61.03
2018-02-15T19:38:10.529Z,65.70
2018-02-15T19:40:36.306Z,64.83
2018-02-15T19:43:02.094Z,67.03
2018-02-15T19:45:27.853Z,65.97
2018-02-15T19:47:53.624Z,60.47
2018-02-15T19:50:19.406Z,67.83
2018-02-15T19:52:45.187Z,73.33
2018-02-15T19:55:10.951Z,64.20
2018-02-15T19:57:36.742Z,86.20
2018-02-15T20:00:02.520Z,79.60
2018-02-15T20:02:28.346Z,92.90
2018-02-15T20:04:54.134Z,92.27
2018-02-15T20:07:19.926Z,77.50
2018-02-15T20:09:45.683Z,103.77
2018-02-15T20:12:11.463Z,76.00
2018-02-15T20:14:37.241Z,78.83
2018-02-15T20:17:03.006Z,87.40
2018-02-15T20:19:28.781Z,78.40
2018-02-15T20:21:54.548Z,90.53
2018-02-15T20:24:20.318Z,92.40
2018-02-15T20:26:52.243Z,85.00
2018-02-15T20:29:18.069Z,76.95
2018-02-15T20:31:43.830Z,83.07
2018-02-15T20:34:09.616Z,81.70
2018-02-15T20:36:35.370Z,108.07
2018-02-15T20:39:07.338Z,110.60
2018-02-15T20:41:33.108Z,94.62
2018-02-15T20:43:58.884Z,120.60
2018-02-15T20:46:24.646Z,102.30
2018-02-15T20:48:50.427Z,109.13
2018-02-15T20:54:31.959Z,116.43
2018-02-15T20:56:57.727Z,105.15
2018-02-15T20:59:23.518Z,137.67
2018-02-15T21:01:49.286Z,144.23
2018-02-15T21:04:15.056Z,143.03
2018-02-15T21:06:40.830Z,131.77
2018-02-15T21:09:06.602Z,112.43
2018-02-15T21:11:32.346Z,140.53
2018-02-15T21:13:58.090Z,121.07
2018-02-15T21:16:23.846Z,207.33
2018-02-15T21:18:49.603Z,162.07
2018-02-15T21:21:15.391Z,115.43
2018-02-15T21:23:41.142Z,150.47
2018-02-15T21:26:06.907Z,171.73
2018-02-15T21:28:32.676Z,154.20
2018-02-15T21:30:58.430Z,203.50
2018-02-15T21:33:24.203Z,173.27
2018-02-15T21:35:49.966Z,211.47
2018-02-15T21:38:15.731Z,182.60
2018-02-15T21:40:41.506Z,167.50
2018-02-15T21:43:07.292Z,175.20
2018-02-15T21:45:33.072Z,126.70
2018-02-15T21:47:58.830Z,213.33
2018-02-15T21:50:24.623Z,189.33
2018-02-15T21:52:50.383Z,185.43
2018-02-15T21:55:16.167Z,283.60
2018-02-15T21:57:41.934Z,200.60
2018-02-15T22:00:07.735Z,189.87
2018-02-15T22:02:33.518Z,222.17
2018-02-15T22:04:59.285Z,221.83
2018-02-15T22:07:25.055Z,263.50
2018-02-15T22:09:50.844Z,340.67
2018-02-15T22:12:16.627Z,270.87
2018-02-15T22:14:42.390Z,148.20
2018-02-15T22:17:08.171Z,221.87
2018-02-15T22:19:33.931Z,169.43
2018-02-15T22:21:59.722Z,270.80
2018-02-15T22:24:25.478Z,228.27
2018-02-15T22:26:51.246Z,223.87
2018-02-15T22:29:17.023Z,162.90
2018-02-15T22:31:42.795Z,166.63
2018-02-15T22:34:08.555Z,160.03
2018-02-15T22:36:34.348Z,229.93
2018-02-15T22:39:00.100Z,208.43
2018-02-15T22:41:25.876Z,164.60
2018-02-15T22:43:51.647Z,242.03
2018-02-15T22:46:17.427Z,172.73
2018-02-15T22:48:43.201Z,169.87
2018-02-15T22:51:08.979Z,120.70
2018-02-15T22:53:34.747Z,168.97
2018-02-15T22:56:00.540Z,175.73
2018-02-15T22:58:26.314Z,164.47
2018-02-15T23:00:52.109Z,129.13
2018-02-15T23:03:17.872Z,146.67
2018-02-15T23:05:43.639Z,144.17
2018-02-15T23:08:09.413Z,119.07
2018-02-15T23:10:35.174Z,105.67
2018-02-15T23:13:00.958Z,124.47
2018-02-15T23:15:26.719Z,103.50
2018-02-15T23:17:52.486Z,101.77
2018-02-15T23:20:18.247Z,110.20
2018-02-15T23:22:44.027Z,115.77
2018-02-15T23:25:09.790Z,109.50
2018-02-15T23:27:35.563Z,102.40
2018-02-15T23:30:01.312Z,115.27
2018-02-15T23:32:27.079Z,104.57
2018-02-15T23:34:52.839Z,116.23
2018-02-15T23:37:18.606Z,100.33
2018-02-15T23:39:44.364Z,72.17
2018-02-15T23:42:10.128Z,75.97
2018-02-15T23:44:35.873Z,74.97
2018-02-15T23:47:01.644Z,65.00
2018-02-15T23:49:27.404Z,70.37
2018-02-15T23:51:53.166Z,92.53
2018-02-15T23:54:18.923Z,62.63
2018-02-15T23:56:44.693Z,61.70
2018-02-15T23:59:10.448Z,54.00
